Station info - map view · info · telemetry · weather · raw · status · beacons · messages · bulletins · browse · moving · my account
Callsign, ship name or locator: Clear       
It is possible to search using wildcards (*?) after a prefix. Example: OH*
APRS station KC0CNT-9 - show graphs
Map loading...
Mic-E message: In service
Location: 32°18.47' N 110°59.93' W - locator DM42MH03DV - show map - static map
1.1 miles South bearing 191° from Casas Adobes, Pima County, Arizona, United States [?]
1.2 miles Northeast bearing 34° from Flowing Wells, Pima County, Arizona, United States
7.3 miles Northwest bearing 325° from Tucson, Pima County, Arizona, United States
84.5 miles Southeast bearing 144° from Chandler, Maricopa County, Arizona, United States
Last position: 2016-09-25 13:33:59 EDT (15h12m ago)
2016-09-25 10:33:59 MST local time at Casas Adobes, United States [?]
Altitude: 2123 ft
Course: 134°
Speed: 10 MPH
Last telemetry: 2016-05-12 00:11:42 EDT (137d 4h35m ago) – show telemetry
Ch 1: 412, Ch 2: 605, Ch 3: 0, Ch 4: 0, Ch 5: 0
 1     2     3     4     5     6     7     8 
Device: Kenwood: TM-D700 (rig)
Last path: KC0CNT-9>S2QXTW via WIDE2-2,qAR,KY7K-10 (good)
Positions stored: 32628
Packet rate: 116 seconds between packets on average during 2671 seconds.
Other SSIDs: KC0CNT KC0CNT-7 KC0CNT-8
Stations near current position of KC0CNT-9 - show more
callsign distance last heard - EDT      callsign distance last heard - EDT
WD8AJJ-151.4 miles 122°2016-09-25 11:30:10 KC7GNM-91.6 miles 146°2016-09-17 13:32:38
KB7AZ-41.8 miles 16°2016-09-22 21:10:04 KD7WAF2.0 miles 285°2016-09-18 15:45:21
KC6WFU-142.1 miles 125°2016-09-19 20:08:07 KG7QDB2.2 miles 137°2016-09-03 21:38:27
K4WBR2.2 miles 8°2016-09-04 16:41:39 NN3T2.6 miles 305°2016-09-26 04:41:53
KF0X2.6 miles 341°2016-09-24 20:28:29 KK1J-72.8 miles 328°2016-09-11 19:30:44
KT7AZ3.1 miles 312°2016-09-18 13:30:40 KG7UJS3.4 miles 307°2016-09-05 20:13:06
KB7YYZ3.4 miles 351°2016-09-26 04:45:28 KC0CNT-83.5 miles 24°2016-09-16 13:52:40
EW94563.6 miles 15°2016-09-26 04:46:26 DW72693.9 miles 37°2016-09-26 04:42:02
KD7QPA-54.3 miles 43°2016-09-08 01:34:58 KI7EIQ4.4 miles 347°2016-09-26 04:46:22
EW96434.5 miles 29°2016-09-26 04:43:08 W1SR-94.5 miles 77°2016-09-12 21:30:38
Stations which heard KC0CNT-9 directly on radio –
callsign pkts first heard - EDT last heard longest (tx => rx) longest at - EDT
SANDIA 86 2016-09-15 12:05:07 2016-09-15 17:09:09 DM64IC > DM65SF 89.9 miles 31° 2016-09-15 17:09:09
KD7DR-3 44 2016-09-15 21:02:50 2016-09-15 23:00:40 DM42OO > DM43OG 45.6 miles 357° 2016-09-15 23:00:40
PORTER 17 2016-09-15 19:27:44 2016-09-15 21:01:49 DM43RR > DM54AE 47.2 miles 45° 2016-09-15 21:01:49
CAPTAN 1 2016-09-15 11:34:05 2016-09-15 11:34:05 DM75IL > DM73HO 129.0 miles 182° 2016-09-15 11:34:05
BENRDG 1 2016-09-15 17:15:22 2016-09-15 17:15:22 DM64HB > DM72CU 125.2 miles 131° 2016-09-15 17:15:22
ALMOSA 5 2016-09-15 08:23:31 2016-09-15 08:52:40 DM77RH > DM77BM 72.9 miles 281° 2016-09-15 08:52:40
LEMMON 9 2016-09-15 22:28:40 2016-09-15 22:57:33 DM42OX > DM42OK 36.9 miles 181° 2016-09-15 22:28:40
LAMOSC 10 2016-09-15 12:16:16 2016-09-15 13:17:38 DM75AP > DM65EG 95.2 miles 255° 2016-09-15 12:16:16
CAPILA 18 2016-09-15 11:41:16 2016-09-15 17:03:57 DM75HJ > DM64TQ 75.3 miles 231° 2016-09-15 11:41:16
TESQUE 29 2016-09-15 11:33:04 2016-09-15 12:43:43 DM65SI > DM75CS 48.7 miles 54° 2016-09-15 12:43:43
ELKMTN 60 2016-09-15 09:51:03 2016-09-15 12:01:00 DM76SS > DM75FS 93.5 miles 222° 2016-09-15 09:51:03
GPARZ 1 2016-09-15 21:58:52 2016-09-15 21:58:52 DM43OG > DM52IV 87.9 miles 107° 2016-09-15 21:58:52
N0PSJ 4 2016-09-15 06:04:14 2016-09-15 06:31:35 DM79ML > DM79KT 22.9 miles 343° 2016-09-15 06:31:35
MMTN 32 2016-09-15 13:35:15 2016-09-15 17:11:15 DM64OL > DM64MB 30.8 miles 197° 2016-09-15 13:35:15
TAOSKI 1 2016-09-15 10:03:26 2016-09-15 10:03:26 DM76RN > DM76GN 50.7 miles 271° 2016-09-15 10:03:26
KC0D 1 2016-09-15 06:55:49 2016-09-15 06:55:49 DM79NE > DM79PI 15.0 miles 39° 2016-09-15 06:55:49
ALMGRE 18 2016-09-15 06:44:17 2016-09-15 09:19:06 DM76SX > DM78MS 125.5 miles 347° 2016-09-15 09:19:06
W7MOT-10 1 2016-09-15 21:12:17 2016-09-15 21:12:17 DM43QO > DM43HV 50.0 miles 294° 2016-09-15 21:12:17
N7HND 15 2016-09-15 23:22:55 2016-09-25 12:50:33 DM42MK > DM42NF 14.2 miles 167° 2016-09-15 23:22:55
KY7K-10 34 2016-09-15 21:59:51 2016-09-25 13:33:59 DM43OG > DM41EW 101.9 miles 208° 2016-09-15 21:59:51
N0ESQ-1 1 2016-09-15 06:39:05 2016-09-15 06:39:05 DM79NK > DM79KG 15.6 miles 223° 2016-09-15 06:39:05
TDAD 34 2016-09-15 08:15:13 2016-09-15 10:26:59 DM77OW > DM76RX 65.9 miles 166° 2016-09-15 08:15:13
K0JSC-1 22 2016-09-15 07:41:07 2016-09-15 08:05:52 DM78QL > DM78QF 16.6 miles 179° 2016-09-15 07:41:07
KD0SFY 29 2016-09-15 07:04:03 2016-09-15 08:17:16 DM77OV > DM78OV 69.1 miles 2° 2016-09-15 08:17:16
KF0X-11 15 2016-09-15 23:03:55 2016-09-25 13:32:58 DM42MG > DM42LM 15.4 miles 350° 2016-09-25 12:53:41
PICURS 1 2016-09-15 09:53:10 2016-09-15 09:53:10 DM76SR > DM76EF 74.9 miles 243° 2016-09-15 09:53:10
K0XK-5 11 2016-09-15 05:57:03 2016-09-15 06:33:53 DM79KQ > DM79OO 19.0 miles 108° 2016-09-15 06:07:33
N0EB 1 2016-09-15 06:25:14 2016-09-15 06:25:14 DM79LN > DM79MV 22.9 miles 9° 2016-09-15 06:25:14
W0ARP 18 2016-09-15 05:58:05 2016-09-15 07:03:02 DM79JQ > DM79QL 31.7 miles 115° 2016-09-15 06:10:37
WD4IXD-10 19 2016-09-15 06:12:40 2016-09-15 06:58:57 DM79ND > DM79LM 26.6 miles 342° 2016-09-15 06:58:57
N3XKB-1 5 2016-09-15 12:11:28 2016-09-15 12:16:36 DM75BO > DM65UV 30.9 miles 312° 2016-09-15 12:11:28
K5RHD-10 11 2016-09-15 12:51:11 2016-09-15 13:07:59 DM65RF > DM65PC 12.6 miles 227° 2016-09-15 12:51:11
GALPK 6 2016-09-15 10:58:45 2016-09-15 16:49:17 DM75NU > DM74CF 123.0 miles 205° 2016-09-15 10:58:45

Only position packets which were originated by the station are shown here. The range statistics show some extra long hops, because some digipeaters do not correctly add themselves to the digipeater path. Please check the raw packets.
About this site
This page shows real-time information collected from the Automatic Position Reporting System Internet network (APRS-IS). APRS is used by amateur (ham) radio operators to transmit real-time position information, weather data, telemetry and messages over the radio. A vehicle equipped with a GPS receiver, a VHF transmitter or HF transceiver and a small computer device called a tracker transmits it's location, speed and course in a small data packet, which is then received by a nearby iGate receiving site which forwards the packet on the Internet. Systems connected to the Internet can send information on the APRS-IS without a radio transmitter, or collect and display information transmitted anywhere in the world.
FAQ · Blog · Discussion group · Linking to aprs.fi · AIS sites · Service status · Database statistics · Advertising on aprs.fi · Technical details · API · Change log · Planned changes · Credits and thanks · Terms Of Service · iPhone/iPad APRS